Time;durP1;ratioP1;P1;durP2;ratioP2;P2;SDS_P1;SDS_P2;PMS_P1;PMS_P2;Temp;Humidity;BMP_temperature;BMP_pressure;BME280_temperature;BME280_humidity;BME280_pressure;Samples;Min_cycle;Max_cycle;Signal;HPM_P1;HPM_P2
2022/01/04 00:00:36;;;;;;;16.02;5.47;;;8.00;99.90;;;;;;4959641;28;20130;-78
2022/01/04 00:03:01;;;;;;;24.40;6.10;;;7.90;99.90;;;;;;4959419;28;20100;-78
2022/01/04 00:05:27;;;;;;;19.23;4.40;;;8.00;99.90;;;;;;4943681;28;20605;-78
2022/01/04 00:07:52;;;;;;;10.93;4.55;;;8.00;99.90;;;;;;4959730;28;20054;-78
2022/01/04 00:10:21;;;;;;;12.02;4.25;;;8.00;99.90;;;;;;4959536;28;20400;-78
2022/01/04 00:15:32;;;;;;;17.45;4.88;;;8.00;99.90;;;;;;4959667;28;20109;-78
2022/01/04 00:17:57;;;;;;;17.48;3.67;;;8.00;99.90;;;;;;4959281;28;20547;-78
2022/01/04 00:20:23;;;;;;;9.68;3.38;;;8.10;99.90;;;;;;4957584;28;20035;-77
2022/01/04 00:22:49;;;;;;;17.92;5.25;;;8.10;99.90;;;;;;4940538;28;20122;-77
2022/01/04 00:25:15;;;;;;;12.63;4.50;;;8.10;99.90;;;;;;4956169;28;20047;-77
2022/01/04 00:27:41;;;;;;;20.40;3.97;;;8.20;99.90;;;;;;4956385;28;20054;-77
2022/01/04 00:30:07;;;;;;;17.35;5.95;;;8.20;99.90;;;;;;4956536;28;20042;-77
2022/01/04 00:32:33;;;;;;;16.98;4.22;;;8.10;99.90;;;;;;4956183;28;20055;-77
2022/01/04 00:34:58;;;;;;;10.13;4.75;;;8.10;99.90;;;;;;4956140;28;20053;-77
2022/01/04 00:37:24;;;;;;;17.27;4.05;;;8.00;99.90;;;;;;4940120;28;20093;-77
2022/01/04 00:39:49;;;;;;;14.30;4.85;;;8.00;99.90;;;;;;4956110;28;20071;-77
2022/01/04 00:42:15;;;;;;;14.07;4.45;;;7.90;99.90;;;;;;4956060;28;20043;-77
2022/01/04 00:44:41;;;;;;;12.88;5.03;;;8.00;99.90;;;;;;4956266;28;20082;-77
2022/01/04 00:47:08;;;;;;;13.82;4.25;;;8.00;99.90;;;;;;4940018;28;20063;-80
2022/01/04 00:49:34;;;;;;;17.90;5.07;;;7.90;99.90;;;;;;4939992;28;20038;-80
2022/01/04 00:52:01;;;;;;;19.67;5.13;;;7.90;99.90;;;;;;4956105;28;20039;-80
2022/01/04 00:54:27;;;;;;;11.73;4.10;;;7.90;99.90;;;;;;4955937;28;20051;-80
2022/01/04 00:56:52;;;;;;;13.38;4.15;;;7.80;99.90;;;;;;4955849;28;20042;-80
2022/01/04 00:59:18;;;;;;;18.70;5.35;;;7.80;99.90;;;;;;4940241;28;20039;-80
2022/01/04 01:01:44;;;;;;;19.92;5.22;;;7.80;99.90;;;;;;4956013;28;20051;-80
2022/01/04 01:04:10;;;;;;;16.33;5.80;;;7.80;99.90;;;;;;4955916;28;20189;-80
2022/01/04 01:06:36;;;;;;;21.58;5.07;;;7.80;99.90;;;;;;4955889;28;20547;-80
2022/01/04 01:09:03;;;;;;;12.65;4.65;;;7.80;99.90;;;;;;4940000;28;20050;-80
2022/01/04 01:11:28;;;;;;;17.65;5.85;;;7.90;99.90;;;;;;4939744;28;20055;-81
2022/01/04 01:13:54;;;;;;;15.90;5.32;;;7.90;99.90;;;;;;4957569;28;20055;-78
2022/01/04 01:16:19;;;;;;;18.05;5.45;;;7.90;99.90;;;;;;4958311;28;20122;-77
2022/01/04 01:18:45;;;;;;;19.42;5.45;;;7.90;99.90;;;;;;4976617;28;20043;-78
2022/01/04 01:21:11;;;;;;;19.33;6.22;;;7.90;99.90;;;;;;4975869;28;20535;-78
2022/01/04 01:23:38;;;;;;;14.07;4.97;;;7.90;99.90;;;;;;4960491;28;20047;-78
2022/01/04 01:26:05;;;;;;;15.05;5.13;;;7.90;99.90;;;;;;4962318;28;20572;-78
2022/01/04 01:28:32;;;;;;;16.35;5.18;;;7.90;99.90;;;;;;4962516;28;20043;-78
2022/01/04 01:30:57;;;;;;;14.52;6.55;;;7.90;99.90;;;;;;4963967;28;20046;-78
2022/01/04 01:33:27;;;;;;;19.95;6.22;;;7.90;99.90;;;;;;4980532;28;20570;-78
2022/01/04 01:35:53;;;;;;;16.50;5.45;;;7.80;99.90;;;;;;4980214;28;20088;-78
2022/01/04 01:38:19;;;;;;;18.98;4.85;;;7.80;99.90;;;;;;4963184;28;20034;-78
2022/01/04 01:40:46;;;;;;;17.42;5.78;;;7.80;99.90;;;;;;4980479;28;20042;-78
2022/01/04 01:43:11;;;;;;;18.70;6.53;;;7.80;99.90;;;;;;4980087;28;20106;-78
2022/01/04 01:45:37;;;;;;;20.00;6.68;;;7.80;99.90;;;;;;4980509;28;20074;-77
2022/01/04 01:48:03;;;;;;;14.98;5.40;;;7.70;99.90;;;;;;4962309;28;20042;-77
2022/01/04 01:50:29;;;;;;;15.10;5.63;;;7.70;99.90;;;;;;4946537;28;20131;-78
2022/01/04 01:52:56;;;;;;;18.33;7.00;;;7.70;99.90;;;;;;4979313;28;20153;-78
2022/01/04 01:55:23;;;;;;;20.52;5.70;;;7.70;99.90;;;;;;4962604;28;20047;-78
2022/01/04 01:57:50;;;;;;;20.30;6.35;;;7.70;99.90;;;;;;4961869;28;20038;-78
2022/01/04 02:00:19;;;;;;;19.70;7.15;;;7.70;99.90;;;;;;4978868;28;20431;-77
2022/01/04 02:02:45;;;;;;;25.90;6.13;;;7.70;99.90;;;;;;4962425;28;20043;-78
2022/01/04 02:05:11;;;;;;;16.30;6.65;;;7.70;99.90;;;;;;4962163;28;20089;-78
2022/01/04 02:07:39;;;;;;;18.02;6.63;;;7.70;99.90;;;;;;4979300;28;20380;-78
2022/01/04 02:10:07;;;;;;;23.30;6.88;;;7.70;99.90;;;;;;4979016;28;20050;-78
2022/01/04 02:12:37;;;;;;;24.05;6.40;;;7.70;99.90;;;;;;4979250;28;20118;-78
2022/01/04 02:15:06;;;;;;;20.92;6.68;;;7.70;99.90;;;;;;4961659;28;20051;-78
2022/01/04 02:17:32;;;;;;;23.23;7.60;;;7.70;99.90;;;;;;4961230;28;20130;-78
2022/01/04 02:19:59;;;;;;;21.00;6.35;;;7.70;99.90;;;;;;4978393;28;20089;-77
2022/01/04 02:22:26;;;;;;;18.40;6.82;;;7.70;99.90;;;;;;4960982;28;20507;-78
2022/01/04 02:24:52;;;;;;;15.25;6.57;;;7.70;99.90;;;;;;4961328;28;20038;-77
2022/01/04 02:27:18;;;;;;;31.50;7.82;;;7.60;99.90;;;;;;4978448;28;20051;-78
2022/01/04 02:29:45;;;;;;;20.25;8.38;;;7.60;99.90;;;;;;4960661;28;20061;-78
2022/01/04 02:32:11;;;;;;;30.92;8.95;;;7.60;99.90;;;;;;4960266;28;20120;-78
2022/01/04 02:34:37;;;;;;;23.70;7.40;;;7.60;99.90;;;;;;4958921;28;20043;-78
2022/01/04 02:37:02;;;;;;;20.23;6.70;;;7.60;99.90;;;;;;4960356;28;20459;-78
2022/01/04 02:39:29;;;;;;;21.00;7.22;;;7.70;99.90;;;;;;4978935;28;20045;-77
2022/01/04 02:41:55;;;;;;;27.30;7.72;;;7.70;99.90;;;;;;4979101;28;20038;-77
2022/01/04 02:44:20;;;;;;;17.63;7.45;;;7.70;99.90;;;;;;4961153;28;20049;-78
2022/01/04 02:46:46;;;;;;;21.40;7.43;;;7.70;99.90;;;;;;4978967;28;20058;-78
2022/01/04 02:49:11;;;;;;;18.17;8.50;;;7.80;99.90;;;;;;4945118;28;20107;-78
2022/01/04 02:51:38;;;;;;;23.10;7.72;;;7.70;99.90;;;;;;4961526;28;20555;-78
2022/01/04 02:54:03;;;;;;;24.25;7.57;;;7.80;99.90;;;;;;4961657;28;20050;-78
2022/01/04 02:56:29;;;;;;;19.23;7.47;;;7.80;99.90;;;;;;4960245;28;20077;-78
2022/01/04 02:59:01;;;;;;;30.13;9.10;;;7.80;99.90;;;;;;4961032;28;20050;-78
2022/01/04 03:01:26;;;;;;;22.73;7.32;;;7.80;99.90;;;;;;4961275;28;20047;-77
2022/01/04 03:03:52;;;;;;;19.98;7.07;;;7.80;99.90;;;;;;4960816;28;20393;-77
2022/01/04 03:06:17;;;;;;;24.17;8.57;;;7.80;99.90;;;;;;4977860;28;20043;-79
2022/01/04 03:08:43;;;;;;;20.60;6.97;;;7.80;99.90;;;;;;4957793;28;20121;-79
2022/01/04 03:11:08;;;;;;;23.10;7.43;;;7.80;99.90;;;;;;4975265;28;20038;-79
2022/01/04 03:13:34;;;;;;;24.50;8.13;;;7.80;99.90;;;;;;4957607;28;20047;-79
2022/01/04 03:16:00;;;;;;;22.52;8.18;;;7.80;99.90;;;;;;4957693;28;20396;-79
2022/01/04 03:18:25;;;;;;;23.67;7.50;;;7.80;99.90;;;;;;4957497;28;20117;-79
2022/01/04 03:20:51;;;;;;;18.92;8.02;;;7.80;99.90;;;;;;4957867;28;20052;-79
2022/01/04 03:23:17;;;;;;;19.17;7.25;;;7.90;99.90;;;;;;4957559;28;20043;-79
2022/01/04 03:25:42;;;;;;;22.80;7.57;;;7.90;99.90;;;;;;4957461;28;20039;-79
2022/01/04 03:28:08;;;;;;;21.45;7.85;;;7.90;99.90;;;;;;4957505;28;20035;-80
2022/01/04 03:30:34;;;;;;;16.25;6.97;;;8.00;99.90;;;;;;4957590;28;20042;-81
2022/01/04 03:33:01;;;;;;;21.40;7.00;;;8.00;99.90;;;;;;4974726;28;20090;-80
2022/01/04 03:35:27;;;;;;;29.42;8.93;;;8.00;99.90;;;;;;4957116;28;20053;-80
2022/01/04 03:37:52;;;;;;;21.55;7.68;;;8.00;99.90;;;;;;4956958;28;20492;-80
2022/01/04 03:40:18;;;;;;;26.95;8.65;;;8.00;99.90;;;;;;4941462;28;20042;-81
2022/01/04 03:42:44;;;;;;;22.83;8.25;;;7.90;99.90;;;;;;4941712;28;20435;-80
2022/01/04 03:45:09;;;;;;;19.83;7.53;;;8.00;99.90;;;;;;4957024;28;20492;-80
2022/01/04 03:47:35;;;;;;;25.17;8.43;;;8.00;99.90;;;;;;4941077;28;20407;-80
2022/01/04 03:50:01;;;;;;;23.95;7.50;;;8.00;99.90;;;;;;4957394;28;20495;-80
2022/01/04 03:52:27;;;;;;;15.90;7.22;;;8.00;99.90;;;;;;4941200;28;20049;-81
2022/01/04 03:54:53;;;;;;;26.90;9.85;;;8.00;99.90;;;;;;4957031;28;20065;-80
2022/01/04 03:57:18;;;;;;;21.15;7.57;;;8.00;99.90;;;;;;4956722;28;20038;-81
2022/01/04 03:59:44;;;;;;;26.27;8.52;;;8.00;99.90;;;;;;4957022;28;20042;-80
2022/01/04 04:02:09;;;;;;;16.92;7.60;;;8.00;99.90;;;;;;4956843;28;20039;-80
2022/01/04 04:04:35;;;;;;;18.85;7.82;;;8.00;99.90;;;;;;4957062;28;20104;-80
2022/01/04 04:07:01;;;;;;;21.48;7.50;;;8.00;99.90;;;;;;4940714;28;20121;-80
2022/01/04 04:09:26;;;;;;;37.38;10.85;;;7.90;99.90;;;;;;4956998;28;20043;-80
2022/01/04 04:11:52;;;;;;;17.83;7.85;;;7.90;99.90;;;;;;4956861;28;20464;-80
2022/01/04 04:14:18;;;;;;;31.42;9.27;;;7.90;99.90;;;;;;4957011;28;20039;-80
2022/01/04 04:16:43;;;;;;;20.67;8.77;;;7.90;99.90;;;;;;4956448;28;20129;-80
2022/01/04 04:19:09;;;;;;;27.60;9.23;;;7.90;99.90;;;;;;4956867;28;20074;-80
2022/01/04 04:21:35;;;;;;;21.70;9.07;;;7.90;99.90;;;;;;4956871;28;20046;-80
2022/01/04 04:24:00;;;;;;;17.42;8.25;;;7.90;99.90;;;;;;4956888;28;20051;-80
2022/01/04 04:26:26;;;;;;;19.58;8.40;;;7.90;99.90;;;;;;4956451;28;20043;-80
2022/01/04 04:28:51;;;;;;;36.33;9.75;;;7.90;99.90;;;;;;4956538;28;20046;-80
2022/01/04 04:31:17;;;;;;;22.17;9.55;;;8.00;99.90;;;;;;4956548;28;20049;-81
2022/01/04 04:33:43;;;;;;;24.58;9.20;;;7.90;99.90;;;;;;4956450;28;20162;-80
2022/01/04 04:36:09;;;;;;;19.48;8.07;;;7.90;99.90;;;;;;4956245;28;20102;-80
2022/01/04 04:38:35;;;;;;;18.95;8.60;;;7.90;99.90;;;;;;4956398;28;20399;-80
2022/01/04 04:41:00;;;;;;;19.13;9.20;;;7.90;99.90;;;;;;4956359;28;20035;-81
2022/01/04 04:43:26;;;;;;;23.42;9.45;;;7.90;99.90;;;;;;4956226;28;20097;-80
2022/01/04 04:45:51;;;;;;;14.75;7.88;;;7.90;99.90;;;;;;4956083;28;20046;-80
2022/01/04 04:48:17;;;;;;;25.10;11.13;;;7.90;99.90;;;;;;4956357;28;20260;-80
2022/01/04 04:50:42;;;;;;;19.90;9.23;;;7.90;99.90;;;;;;4956160;28;20055;-80
2022/01/04 04:53:08;;;;;;;21.77;8.70;;;7.90;99.90;;;;;;4956051;28;20066;-80
2022/01/04 04:55:34;;;;;;;15.75;8.10;;;7.90;99.90;;;;;;4955918;28;20427;-81
2022/01/04 04:57:59;;;;;;;23.15;8.60;;;8.00;99.90;;;;;;4955406;28;20096;-80
2022/01/04 05:00:25;;;;;;;17.40;7.53;;;8.00;99.90;;;;;;4956039;28;20097;-80
2022/01/04 05:02:51;;;;;;;15.88;7.10;;;8.00;99.90;;;;;;4955996;28;20038;-80
2022/01/04 05:05:16;;;;;;;19.80;7.20;;;8.00;99.90;;;;;;4956061;28;20559;-80
2022/01/04 05:07:42;;;;;;;15.57;7.15;;;7.90;99.90;;;;;;4955917;28;20047;-80
2022/01/04 05:10:09;;;;;;;15.43;6.88;;;8.00;99.90;;;;;;4960150;28;20057;-78
2022/01/04 05:12:34;;;;;;;26.65;8.80;;;8.00;99.90;;;;;;4959948;28;20061;-78
2022/01/04 05:15:00;;;;;;;20.15;9.02;;;8.00;99.90;;;;;;4958709;28;20126;-78
2022/01/04 05:17:26;;;;;;;17.67;8.25;;;8.00;99.90;;;;;;4940597;28;20050;-77
2022/01/04 05:19:52;;;;;;;23.23;9.30;;;8.00;99.90;;;;;;4957081;28;20497;-78
2022/01/04 05:22:17;;;;;;;25.88;9.45;;;8.10;99.90;;;;;;4975856;28;20523;-77
2022/01/04 05:24:43;;;;;;;17.15;8.75;;;8.00;99.90;;;;;;4958579;28;20042;-78
2022/01/04 05:27:09;;;;;;;19.42;8.57;;;8.00;99.90;;;;;;4976263;28;20070;-78
2022/01/04 05:29:35;;;;;;;15.00;8.48;;;8.10;99.90;;;;;;4976445;28;20086;-79
2022/01/04 05:32:00;;;;;;;21.98;9.15;;;8.10;99.90;;;;;;4958713;28;20443;-78
2022/01/04 05:34:26;;;;;;;22.10;8.27;;;8.10;99.90;;;;;;4958272;28;20122;-78
2022/01/04 05:36:52;;;;;;;21.30;10.10;;;8.00;99.90;;;;;;4957886;28;20039;-78
2022/01/04 05:39:18;;;;;;;20.27;8.82;;;8.00;99.90;;;;;;4975374;28;20043;-78
2022/01/04 05:41:44;;;;;;;23.00;8.90;;;8.00;99.90;;;;;;4958794;28;20031;-78
2022/01/04 05:44:10;;;;;;;20.00;8.77;;;8.00;99.90;;;;;;4957563;28;20078;-78
2022/01/04 05:46:36;;;;;;;20.98;9.20;;;8.00;99.90;;;;;;4957797;28;20109;-78
2022/01/04 05:49:02;;;;;;;21.17;9.82;;;8.00;99.90;;;;;;4941472;28;20109;-80
2022/01/04 05:51:28;;;;;;;21.83;9.88;;;8.00;99.90;;;;;;4955397;28;20046;-80
2022/01/04 05:53:53;;;;;;;20.38;10.40;;;8.10;99.90;;;;;;4956375;28;20454;-80
2022/01/04 05:56:19;;;;;;;20.40;8.95;;;8.00;99.90;;;;;;4940357;28;20058;-80
2022/01/04 05:58:44;;;;;;;21.00;9.93;;;8.00;99.90;;;;;;4939974;28;20092;-80
2022/01/04 06:01:10;;;;;;;22.77;9.48;;;8.00;99.90;;;;;;4939912;28;20054;-81
2022/01/04 06:03:35;;;;;;;25.20;9.60;;;8.00;99.90;;;;;;4940172;28;20507;-80
2022/01/04 06:06:03;;;;;;;25.95;10.52;;;8.00;99.90;;;;;;4939677;28;20043;-80
2022/01/04 06:08:33;;;;;;;31.75;11.32;;;8.00;99.90;;;;;;4939997;28;20039;-80
2022/01/04 06:10:59;;;;;;;22.85;9.65;;;7.90;99.90;;;;;;4959554;28;20053;-80
2022/01/04 06:16:09;;;;;;;21.70;9.80;;;7.90;99.90;;;;;;4976691;28;20054;-80
2022/01/04 06:18:35;;;;;;;22.70;10.38;;;7.90;99.90;;;;;;4976641;28;20038;-80
2022/01/04 06:21:02;;;;;;;26.75;9.90;;;7.90;99.90;;;;;;4959424;28;20049;-80
2022/01/04 06:23:27;;;;;;;22.48;10.05;;;7.80;99.90;;;;;;4959589;28;20047;-80
2022/01/04 06:25:53;;;;;;;23.17;10.05;;;7.90;99.90;;;;;;4959608;28;20047;-80
2022/01/04 06:28:20;;;;;;;25.20;10.85;;;7.90;99.90;;;;;;4959788;28;20070;-80
2022/01/04 06:30:46;;;;;;;22.02;10.48;;;7.90;99.90;;;;;;4958789;28;20514;-80
2022/01/04 06:33:12;;;;;;;22.65;10.45;;;7.80;99.90;;;;;;4943215;28;20085;-82
2022/01/04 06:35:37;;;;;;;23.20;10.27;;;7.90;99.90;;;;;;4943600;28;20034;-81
2022/01/04 06:38:06;;;;;;;24.60;10.77;;;7.90;99.90;;;;;;4943251;28;20043;-82
2022/01/04 06:40:32;;;;;;;24.70;11.35;;;7.90;99.90;;;;;;4958889;28;20506;-82
2022/01/04 06:42:57;;;;;;;24.08;11.38;;;7.90;99.90;;;;;;4958863;28;20051;-82
2022/01/04 06:45:23;;;;;;;22.05;10.82;;;7.90;99.90;;;;;;4942721;28;20042;-81
2022/01/04 06:47:48;;;;;;;18.48;10.27;;;7.90;99.90;;;;;;4943333;28;20042;-81
2022/01/04 06:50:15;;;;;;;22.95;10.48;;;7.90;99.90;;;;;;4958789;28;20050;-80
2022/01/04 06:52:42;;;;;;;23.00;10.80;;;7.80;99.90;;;;;;4958355;28;20105;-80
2022/01/04 06:55:08;;;;;;;24.48;10.73;;;7.90;99.90;;;;;;4974021;28;20074;-80
2022/01/04 06:57:33;;;;;;;26.95;10.80;;;7.90;99.90;;;;;;4958460;28;20043;-80
2022/01/04 06:59:59;;;;;;;26.25;10.90;;;7.90;99.90;;;;;;4958542;28;20090;-80
2022/01/04 07:02:24;;;;;;;28.08;10.02;;;7.90;99.90;;;;;;4958194;28;20047;-80
2022/01/04 07:04:50;;;;;;;22.83;11.43;;;7.90;99.90;;;;;;4975257;28;20042;-79
2022/01/04 07:07:16;;;;;;;26.88;12.27;;;7.90;99.90;;;;;;4975021;28;20050;-79
2022/01/04 07:09:42;;;;;;;23.92;10.75;;;7.90;99.90;;;;;;4957732;28;20042;-79
2022/01/04 07:12:08;;;;;;;24.77;11.27;;;7.90;99.90;;;;;;4957872;28;20419;-80
2022/01/04 07:14:34;;;;;;;31.65;12.77;;;7.90;99.90;;;;;;4975238;28;20092;-79
2022/01/04 07:16:59;;;;;;;24.40;11.10;;;7.90;99.90;;;;;;4957544;28;20050;-79
2022/01/04 07:19:25;;;;;;;31.23;11.85;;;7.90;99.90;;;;;;4957866;28;20092;-79
2022/01/04 07:21:51;;;;;;;25.75;11.50;;;7.80;99.90;;;;;;4957135;28;20403;-77
2022/01/04 07:24:16;;;;;;;28.65;11.93;;;8.00;99.90;;;;;;4957502;28;20043;-77
2022/01/04 07:26:42;;;;;;;23.00;10.95;;;7.90;99.90;;;;;;4957280;28;20069;-77
2022/01/04 07:29:07;;;;;;;24.20;11.27;;;8.00;99.90;;;;;;4957451;28;20056;-77
2022/01/04 07:31:33;;;;;;;32.10;10.95;;;8.00;99.90;;;;;;4957807;28;20185;-77
2022/01/04 07:33:59;;;;;;;20.92;11.60;;;7.90;99.90;;;;;;4941490;28;20038;-77
2022/01/04 07:36:25;;;;;;;26.27;10.93;;;8.00;99.90;;;;;;4957028;28;20411;-77
2022/01/04 07:38:51;;;;;;;31.00;13.52;;;8.00;99.90;;;;;;4974386;28;20392;-77
2022/01/04 07:41:16;;;;;;;26.52;12.27;;;8.00;99.90;;;;;;4957255;28;20090;-77
2022/01/04 07:43:42;;;;;;;28.48;12.02;;;8.00;99.90;;;;;;4957423;28;20046;-77
2022/01/04 07:46:08;;;;;;;27.83;12.80;;;8.00;99.90;;;;;;4940996;28;20051;-77
2022/01/04 07:48:33;;;;;;;31.73;12.00;;;8.00;99.90;;;;;;4941285;28;20047;-77
2022/01/04 07:50:59;;;;;;;29.05;11.40;;;8.00;99.90;;;;;;4957219;28;20130;-77
2022/01/04 07:53:25;;;;;;;30.73;12.05;;;7.90;99.90;;;;;;4957007;28;20106;-79
2022/01/04 07:55:51;;;;;;;37.83;12.43;;;7.90;99.90;;;;;;4957196;28;20483;-79
2022/01/04 07:58:17;;;;;;;24.13;12.82;;;7.90;99.90;;;;;;4940944;28;20093;-79
2022/01/04 08:00:43;;;;;;;31.55;13.23;;;8.00;99.90;;;;;;4941232;28;20042;-80
2022/01/04 08:03:10;;;;;;;27.08;11.60;;;7.90;99.90;;;;;;4957030;28;20073;-80
2022/01/04 08:05:36;;;;;;;27.20;10.95;;;7.90;99.90;;;;;;4940817;28;20480;-80
2022/01/04 08:08:02;;;;;;;24.60;10.93;;;7.90;99.90;;;;;;4956914;28;20039;-80
2022/01/04 08:10:27;;;;;;;25.10;10.55;;;8.00;99.90;;;;;;4957032;28;20057;-80
2022/01/04 08:12:53;;;;;;;24.30;11.80;;;7.90;99.90;;;;;;4940928;28;20189;-80
2022/01/04 08:15:18;;;;;;;24.02;10.77;;;7.90;99.90;;;;;;4956799;28;20039;-79
2022/01/04 08:17:44;;;;;;;22.50;11.15;;;8.00;99.90;;;;;;4957102;28;20046;-79
2022/01/04 08:20:10;;;;;;;20.80;10.95;;;7.90;99.90;;;;;;4956893;28;20574;-79
2022/01/04 08:22:36;;;;;;;26.08;11.02;;;7.90;99.90;;;;;;4956547;28;20039;-79
2022/01/04 08:25:05;;;;;;;23.27;10.52;;;7.90;99.90;;;;;;4956632;28;20110;-78
2022/01/04 08:27:30;;;;;;;23.15;10.55;;;7.80;99.90;;;;;;4974057;28;20096;-78
2022/01/04 08:29:56;;;;;;;24.63;10.48;;;7.80;99.90;;;;;;4959485;28;20050;-78
2022/01/04 08:32:22;;;;;;;26.52;10.65;;;7.80;99.90;;;;;;4958221;28;20050;-78
2022/01/04 08:34:49;;;;;;;26.35;10.27;;;7.80;99.90;;;;;;4958216;28;20511;-78
2022/01/04 08:37:14;;;;;;;23.13;10.43;;;7.80;99.90;;;;;;4958423;28;20562;-78
2022/01/04 08:39:40;;;;;;;21.42;10.35;;;7.80;99.90;;;;;;4957790;28;20039;-78
2022/01/04 08:42:06;;;;;;;23.67;10.50;;;7.80;99.90;;;;;;4958300;28;20039;-78
2022/01/04 08:44:33;;;;;;;22.15;9.80;;;7.80;99.90;;;;;;4942084;28;20047;-78
2022/01/04 08:46:59;;;;;;;28.38;10.10;;;7.80;99.90;;;;;;4956777;28;20053;-79
2022/01/04 08:49:25;;;;;;;24.10;11.13;;;7.80;99.90;;;;;;4972144;28;20092;-80
2022/01/04 08:51:50;;;;;;;26.02;12.02;;;7.90;99.90;;;;;;4972419;28;20051;-80
2022/01/04 08:54:16;;;;;;;24.08;10.68;;;7.80;99.90;;;;;;4956043;28;20049;-80
2022/01/04 08:56:42;;;;;;;24.83;12.02;;;7.80;99.90;;;;;;4955953;28;20102;-79
2022/01/04 08:59:10;;;;;;;27.23;12.40;;;7.90;99.90;;;;;;4956180;28;20074;-80
2022/01/04 09:01:36;;;;;;;26.48;11.60;;;7.90;99.90;;;;;;4955896;28;20043;-80
2022/01/04 09:04:02;;;;;;;23.60;10.90;;;7.90;99.90;;;;;;4940249;28;20042;-80
2022/01/04 09:06:28;;;;;;;29.77;11.60;;;7.90;99.90;;;;;;4955628;28;20049;-79
2022/01/04 09:08:56;;;;;;;27.75;11.82;;;8.00;99.90;;;;;;4956070;28;20046;-79
2022/01/04 09:11:23;;;;;;;30.08;11.30;;;7.90;99.90;;;;;;4973400;28;20558;-80
2022/01/04 09:13:50;;;;;;;32.80;12.77;;;8.00;99.90;;;;;;4956468;28;20038;-80
2022/01/04 09:19:00;;;;;;;29.25;12.98;;;7.90;99.90;;;;;;4955916;28;20062;-80
2022/01/04 09:21:28;;;;;;;27.13;11.93;;;8.00;99.90;;;;;;4940336;28;20034;-80
2022/01/04 09:23:55;;;;;;;25.25;11.48;;;8.00;99.90;;;;;;4956111;28;20093;-80
2022/01/04 09:26:21;;;;;;;25.83;11.75;;;8.00;99.90;;;;;;4972052;28;20126;-80
2022/01/04 09:28:47;;;;;;;23.20;11.40;;;8.00;99.90;;;;;;4941017;28;20403;-81
2022/01/04 09:31:13;;;;;;;26.75;11.27;;;8.00;99.90;;;;;;4956950;28;20054;-80
2022/01/04 09:33:40;;;;;;;19.40;7.68;;;7.90;99.90;;;;;;4972570;28;20043;-81
2022/01/04 09:36:06;;;;;;;17.15;8.02;;;7.90;99.90;;;;;;4957443;28;20051;-80
2022/01/04 09:38:32;;;;;;;16.77;7.47;;;7.90;99.90;;;;;;4959007;28;20047;-80
2022/01/04 09:40:58;;;;;;;10.15;4.82;;;7.90;99.90;;;;;;4976261;28;20049;-80
2022/01/04 09:43:25;;;;;;;5.85;3.20;;;7.80;99.90;;;;;;4958839;28;20057;-81
2022/01/04 09:45:52;;;;;;;6.88;3.95;;;7.80;99.90;;;;;;4962091;28;20435;-80
2022/01/04 09:48:19;;;;;;;11.65;4.13;;;7.70;99.90;;;;;;4962678;28;20054;-81
2022/01/04 09:50:46;;;;;;;7.80;3.92;;;7.70;99.90;;;;;;4963667;28;20070;-80
2022/01/04 09:53:19;;;;;;;9.63;3.90;;;7.60;99.90;;;;;;4960103;28;20046;-77
2022/01/04 09:55:47;;;;;;;8.65;3.85;;;7.60;99.90;;;;;;4959381;28;20491;-77
2022/01/04 09:58:12;;;;;;;9.07;3.05;;;7.60;99.90;;;;;;4960366;28;20050;-77
2022/01/04 10:00:38;;;;;;;9.18;4.15;;;7.60;99.90;;;;;;4960834;28;20098;-78
2022/01/04 10:03:15;;;;;;;8.30;4.15;;;7.50;99.90;;;;;;4961151;28;20472;-78
2022/01/04 10:05:41;;;;;;;8.13;4.13;;;7.60;99.90;;;;;;4978171;28;20075;-77
2022/01/04 10:08:08;;;;;;;10.02;3.00;;;7.60;99.90;;;;;;4978155;28;20038;-78
2022/01/04 10:10:35;;;;;;;9.60;2.60;;;7.60;99.90;;;;;;4961440;28;20046;-78
2022/01/04 10:13:05;;;;;;;11.05;2.28;;;7.60;99.90;;;;;;4961218;28;20050;-78
2022/01/04 10:15:39;;;;;;;5.13;2.13;;;7.60;99.90;;;;;;4960136;28;20050;-78
2022/01/04 10:18:14;;;;;;;4.97;2.22;;;7.70;99.90;;;;;;4959974;28;20046;-77
2022/01/04 10:20:45;;;;;;;3.20;1.60;;;7.70;99.90;;;;;;4959734;28;20038;-77
2022/01/04 10:23:13;;;;;;;4.60;1.80;;;7.70;99.90;;;;;;4959915;28;20046;-77
2022/01/04 10:25:39;;;;;;;7.88;1.70;;;7.70;99.90;;;;;;4959843;28;20492;-78
2022/01/04 10:28:05;;;;;;;3.78;1.48;;;7.80;99.90;;;;;;4960836;28;20042;-78
2022/01/04 10:30:35;;;;;;;9.20;1.50;;;7.80;99.90;;;;;;4961184;28;20043;-77
2022/01/04 10:33:14;;;;;;;8.00;1.38;;;7.70;99.90;;;;;;4960295;28;20054;-78
2022/01/04 10:35:50;;;;;;;6.35;1.92;;;7.70;99.90;;;;;;4960009;28;20051;-77
2022/01/04 10:38:26;;;;;;;5.35;1.17;;;7.70;99.90;;;;;;4959678;28;20039;-77
2022/01/04 10:41:07;;;;;;;3.60;1.80;;;7.70;99.90;;;;;;4978600;28;20046;-77
2022/01/04 10:43:45;;;;;;;9.60;1.65;;;7.70;99.90;;;;;;4961066;28;20050;-78
2022/01/04 10:46:13;;;;;;;5.95;0.95;;;7.70;99.90;;;;;;4978218;28;20154;-76
2022/01/04 10:48:43;;;;;;;5.10;1.40;;;7.60;99.90;;;;;;4975508;28;20189;-76
2022/01/04 10:51:21;;;;;;;6.43;1.08;;;7.60;99.90;;;;;;4958225;28;20034;-76
2022/01/04 10:53:52;;;;;;;2.15;1.20;;;7.60;99.90;;;;;;4958438;28;20063;-76
2022/01/04 10:56:38;;;;;;;5.07;1.43;;;7.40;99.90;;;;;;4957235;28;20447;-76
2022/01/04 10:59:10;;;;;;;4.75;1.33;;;7.50;99.90;;;;;;4957719;28;20291;-76
2022/01/04 11:01:45;;;;;;;5.13;2.53;;;7.40;99.90;;;;;;4958096;28;20035;-76
2022/01/04 11:04:13;;;;;;;1.27;0.93;;;7.40;99.90;;;;;;4958052;28;20510;-76
2022/01/04 11:06:39;;;;;;;6.43;0.90;;;7.40;99.90;;;;;;4957857;28;20416;-77
2022/01/04 11:09:06;;;;;;;1.65;0.70;;;7.40;99.90;;;;;;4958205;28;20054;-76
2022/01/04 11:11:32;;;;;;;2.63;0.63;;;7.30;99.90;;;;;;4958151;28;20074;-75
2022/01/04 11:13:58;;;;;;;1.92;0.50;;;7.30;99.90;;;;;;4958165;28;20039;-77
2022/01/04 11:16:26;;;;;;;7.85;2.85;;;7.20;99.90;;;;;;4957710;28;20110;-78
2022/01/04 11:18:53;;;;;;;14.60;4.90;;;7.20;99.90;;;;;;4957926;28;20060;-79
2022/01/04 11:21:24;;;;;;;4.07;1.75;;;7.20;99.90;;;;;;4975075;28;20077;-78
2022/01/04 11:23:52;;;;;;;4.25;2.60;;;7.20;99.90;;;;;;4957859;28;20030;-78
2022/01/04 11:26:19;;;;;;;3.38;0.90;;;7.20;99.90;;;;;;4957532;28;20130;-79
2022/01/04 11:28:46;;;;;;;4.78;1.58;;;7.20;99.90;;;;;;4957651;28;20046;-78
2022/01/04 11:31:31;;;;;;;5.70;1.00;;;7.20;99.90;;;;;;4957536;28;20039;-78
2022/01/04 11:34:06;;;;;;;4.45;1.63;;;7.20;99.90;;;;;;4957685;28;20165;-78
2022/01/04 11:36:37;;;;;;;5.30;1.20;;;7.20;99.90;;;;;;4973170;28;20062;-79
2022/01/04 11:39:31;;;;;;;4.40;1.97;;;7.20;99.90;;;;;;4957275;28;20122;-78
2022/01/04 11:41:59;;;;;;;5.00;1.02;;;7.20;99.90;;;;;;4957380;28;20759;-77
2022/01/04 11:44:31;;;;;;;0.75;0.63;;;7.10;99.90;;;;;;4977857;28;20038;-81
2022/01/04 11:47:02;;;;;;;3.08;0.95;;;7.00;99.90;;;;;;4957204;28;20042;-79
2022/01/04 11:49:28;;;;;;;3.53;1.00;;;7.00;99.90;;;;;;4957415;28;20522;-79
2022/01/04 11:51:54;;;;;;;4.00;0.85;;;6.80;99.90;;;;;;4941467;28;20186;-79
2022/01/04 11:54:21;;;;;;;2.22;1.13;;;6.80;99.90;;;;;;4957320;28;20140;-80
2022/01/04 11:56:59;;;;;;;1.52;0.60;;;6.80;99.90;;;;;;4957086;28;20404;-79
2022/01/04 11:59:31;;;;;;;4.32;1.27;;;6.60;99.90;;;;;;4956862;28;20043;-81
2022/01/04 12:01:56;;;;;;;10.65;2.95;;;6.50;99.90;;;;;;4956961;28;20114;-79
2022/01/04 12:05:02;;;;;;;4.95;1.98;;;6.40;99.90;;;;;;4957168;28;20130;-79
2022/01/04 12:07:44;;;;;;;1.13;0.50;;;6.30;99.90;;;;;;4898903;29;20458;-79
2022/01/04 12:10:19;;;;;;;6.45;0.60;;;6.30;99.90;;;;;;4900491;29;20048;-79
2022/01/04 12:13:01;;;;;;;2.30;0.40;;;6.20;99.90;;;;;;4937460;28;20504;-79
2022/01/04 12:15:33;;;;;;;;;;;6.30;99.90;;;;;;4958771;28;20411;-79
2022/01/04 12:18:00;;;;;;;2.50;0.50;;;6.20;99.90;;;;;;4957176;28;20344;-80
2022/01/04 12:20:44;;;;;;;5.03;0.90;;;6.20;99.90;;;;;;4958146;28;20050;-79
2022/01/04 12:23:35;;;;;;;4.00;0.57;;;6.20;99.90;;;;;;4956598;28;20050;-79
2022/01/04 12:28:41;;;;;;;3.40;0.55;;;6.20;99.90;;;;;;4957389;28;20618;-79
2022/01/04 12:31:19;;;;;;;1.65;0.55;;;6.20;99.90;;;;;;4956670;28;20377;-78
2022/01/04 12:33:46;;;;;;;1.65;0.40;;;6.20;99.90;;;;;;4956685;28;20051;-79
2022/01/04 12:36:27;;;;;;;2.13;0.35;;;6.10;99.90;;;;;;4957322;28;20435;-79
2022/01/04 12:38:54;;;;;;;0.70;0.38;;;6.00;99.90;;;;;;4957746;28;20046;-79
2022/01/04 12:41:20;;;;;;;0.60;0.35;;;5.90;99.90;;;;;;4957587;28;20054;-80
2022/01/04 12:43:47;;;;;;;13.80;4.50;;;5.90;99.90;;;;;;4958386;28;20073;-79
2022/01/04 12:46:28;;;;;;;5.32;2.20;;;5.90;99.90;;;;;;4956253;28;20042;-79
2022/01/04 12:48:56;;;;;;;4.32;0.88;;;5.90;99.90;;;;;;4974709;28;20054;-80
2022/01/04 12:51:29;;;;;;;0.73;0.52;;;5.90;99.90;;;;;;4957412;28;20051;-80
2022/01/04 12:54:07;;;;;;;2.40;0.50;;;5.90;99.90;;;;;;4956885;28;20042;-79
2022/01/04 12:56:43;;;;;;;1.95;0.45;;;5.90;99.90;;;;;;4956427;28;20047;-79